CSAPA KSDF-KOWB
Flight info
| Callsign | CSAPA |
|---|---|
| Flight time | 0h 47m |
| Altitude | 1500 |
| Route | VFR W |
| Aircraft | C152/L-V/N |
Departure
| Time | 2026-05-04 01:24 |
|---|---|
| Airport | Louisville Muhammad Ali International Airport (KSDF) |
Arrival
| Time | 2026-05-04 02:11 |
|---|---|
| Airport | Owensboro Daviess County Airport (KOWB) |
| Time | Latitude | Longitude | Altitude | Speed | Heading |
|---|---|---|---|---|---|
| 2026-05-04 01:20 | 38.18133 | -85.72410 | 504 ft | 0 kts | 347° |
| 2026-05-04 01:21 | 38.18139 | -85.72412 | 504 ft | 5 kts | 347° |
| 2026-05-04 01:21 | 38.18201 | -85.72430 | 504 ft | 11 kts | 347° |
| 2026-05-04 01:22 | 38.18238 | -85.72464 | 504 ft | 6 kts | 262° |
| 2026-05-04 01:22 | 38.18224 | -85.72543 | 504 ft | 12 kts | 256° |
| 2026-05-04 01:22 | 38.18202 | -85.72658 | 504 ft | 15 kts | 256° |
| 2026-05-04 01:22 | 38.18173 | -85.72797 | 504 ft | 17 kts | 255° |
| 2026-05-04 01:23 | 38.18136 | -85.72927 | 504 ft | 8 kts | 198° |
| 2026-05-04 01:23 | 38.17948 | -85.72866 | 505 ft | 56 kts | 164° |
| 2026-05-04 01:23 | 38.17482 | -85.72705 | 620 ft | 74 kts | 165° |
| 2026-05-04 01:23 | 38.16987 | -85.72535 | 839 ft | 73 kts | 165° |
| 2026-05-04 01:24 | 38.16494 | -85.72375 | 1024 ft | 78 kts | 165° |
| 2026-05-04 01:24 | 38.15921 | -85.72182 | 1164 ft | 87 kts | 164° |
| 2026-05-04 01:24 | 38.15329 | -85.71956 | 1360 ft | 89 kts | 162° |
| 2026-05-04 01:24 | 38.14738 | -85.71720 | 1497 ft | 94 kts | 165° |
| 2026-05-04 01:25 | 38.14095 | -85.71529 | 1482 ft | 95 kts | 168° |
| 2026-05-04 01:25 | 38.13431 | -85.71362 | 1466 ft | 100 kts | 168° |
| 2026-05-04 01:25 | 38.12747 | -85.71177 | 1477 ft | 101 kts | 168° |
| 2026-05-04 01:25 | 38.12052 | -85.70997 | 1478 ft | 102 kts | 168° |
| 2026-05-04 01:26 | 38.11353 | -85.70818 | 1479 ft | 103 kts | 169° |
| 2026-05-04 01:26 | 38.10654 | -85.70644 | 1486 ft | 102 kts | 167° |
| 2026-05-04 01:26 | 38.09959 | -85.70435 | 1483 ft | 103 kts | 166° |
| 2026-05-04 01:26 | 38.09265 | -85.70208 | 1487 ft | 103 kts | 165° |
| 2026-05-04 01:27 | 38.08568 | -85.70006 | 1474 ft | 104 kts | 175° |
| 2026-05-04 01:27 | 38.07879 | -85.70208 | 1476 ft | 103 kts | 211° |
| 2026-05-04 01:27 | 38.07392 | -85.70883 | 1447 ft | 104 kts | 243° |
| 2026-05-04 01:27 | 38.07224 | -85.71762 | 1467 ft | 102 kts | 265° |
| 2026-05-04 01:28 | 38.07189 | -85.72644 | 1489 ft | 101 kts | 268° |
| 2026-05-04 01:28 | 38.07185 | -85.73537 | 1503 ft | 101 kts | 271° |
| 2026-05-04 01:28 | 38.07170 | -85.74430 | 1521 ft | 101 kts | 266° |
| 2026-05-04 01:28 | 38.07133 | -85.75320 | 1531 ft | 101 kts | 267° |
| 2026-05-04 01:29 | 38.07075 | -85.76212 | 1547 ft | 101 kts | 262° |
| 2026-05-04 01:29 | 38.06969 | -85.77101 | 1553 ft | 102 kts | 262° |
| 2026-05-04 01:29 | 38.06877 | -85.77990 | 1563 ft | 102 kts | 262° |
| 2026-05-04 01:29 | 38.06770 | -85.78883 | 1559 ft | 103 kts | 260° |
| 2026-05-04 01:30 | 38.06638 | -85.79769 | 1547 ft | 103 kts | 258° |
| 2026-05-04 01:30 | 38.06499 | -85.80669 | 1529 ft | 105 kts | 259° |
| 2026-05-04 01:30 | 38.06369 | -85.81564 | 1553 ft | 102 kts | 259° |
| 2026-05-04 01:30 | 38.06242 | -85.82466 | 1507 ft | 106 kts | 260° |
| 2026-05-04 01:31 | 38.06113 | -85.83377 | 1504 ft | 104 kts | 259° |
| 2026-05-04 01:31 | 38.05975 | -85.84295 | 1478 ft | 105 kts | 259° |
| 2026-05-04 01:31 | 38.05832 | -85.85200 | 1467 ft | 105 kts | 258° |
| 2026-05-04 01:31 | 38.05690 | -85.86102 | 1471 ft | 104 kts | 259° |
| 2026-05-04 01:32 | 38.05515 | -85.86977 | 1464 ft | 104 kts | 253° |
| 2026-05-04 01:32 | 38.05295 | -85.87843 | 1469 ft | 103 kts | 251° |
| 2026-05-04 01:32 | 38.05055 | -85.88700 | 1470 ft | 103 kts | 250° |
| 2026-05-04 01:32 | 38.04803 | -85.89552 | 1495 ft | 101 kts | 249° |
| 2026-05-04 01:33 | 38.04558 | -85.90392 | 1494 ft | 103 kts | 249° |
| 2026-05-04 01:33 | 38.04287 | -85.91225 | 1510 ft | 102 kts | 247° |
| 2026-05-04 01:33 | 38.04021 | -85.92047 | 1515 ft | 102 kts | 248° |
| 2026-05-04 01:33 | 38.03750 | -85.92880 | 1523 ft | 102 kts | 247° |
| 2026-05-04 01:34 | 38.03476 | -85.93709 | 1532 ft | 102 kts | 247° |
| 2026-05-04 01:34 | 38.03194 | -85.94537 | 1535 ft | 102 kts | 246° |
| 2026-05-04 01:34 | 38.02901 | -85.95366 | 1536 ft | 103 kts | 245° |
| 2026-05-04 01:34 | 38.02600 | -85.96183 | 1542 ft | 102 kts | 244° |
| 2026-05-04 01:35 | 38.02286 | -85.96996 | 1543 ft | 103 kts | 243° |
| 2026-05-04 01:35 | 38.01960 | -85.97800 | 1544 ft | 103 kts | 242° |
| 2026-05-04 01:35 | 38.01655 | -85.98627 | 1532 ft | 104 kts | 247° |
| 2026-05-04 01:35 | 38.01397 | -85.99468 | 1537 ft | 103 kts | 249° |
| 2026-05-04 01:36 | 38.01151 | -86.00332 | 1534 ft | 103 kts | 251° |
| 2026-05-04 01:36 | 38.00921 | -86.01182 | 1533 ft | 103 kts | 251° |
| 2026-05-04 01:36 | 38.00693 | -86.02046 | 1532 ft | 103 kts | 251° |
| 2026-05-04 01:36 | 38.00467 | -86.02908 | 1531 ft | 103 kts | 251° |
| 2026-05-04 01:37 | 38.00239 | -86.03769 | 1530 ft | 103 kts | 251° |
| 2026-05-04 01:37 | 38.00006 | -86.04629 | 1529 ft | 103 kts | 251° |
| 2026-05-04 01:37 | 37.99765 | -86.05489 | 1528 ft | 103 kts | 250° |
| 2026-05-04 01:37 | 37.99514 | -86.06342 | 1527 ft | 103 kts | 249° |
| 2026-05-04 01:38 | 37.99251 | -86.07189 | 1526 ft | 103 kts | 248° |
| 2026-05-04 01:38 | 37.99005 | -86.08046 | 1520 ft | 104 kts | 252° |
| 2026-05-04 01:38 | 37.98788 | -86.08903 | 1521 ft | 103 kts | 252° |
| 2026-05-04 01:38 | 37.98570 | -86.09781 | 1519 ft | 103 kts | 252° |
| 2026-05-04 01:39 | 37.98358 | -86.10641 | 1516 ft | 103 kts | 252° |
| 2026-05-04 01:39 | 37.98140 | -86.11509 | 1515 ft | 103 kts | 252° |
| 2026-05-04 01:39 | 37.97917 | -86.12375 | 1513 ft | 103 kts | 251° |
| 2026-05-04 01:39 | 37.97687 | -86.13236 | 1511 ft | 103 kts | 251° |
| 2026-05-04 01:40 | 37.97447 | -86.14094 | 1509 ft | 103 kts | 250° |
| 2026-05-04 01:40 | 37.97196 | -86.14948 | 1508 ft | 103 kts | 249° |
| 2026-05-04 01:40 | 37.96934 | -86.15795 | 1506 ft | 103 kts | 248° |
| 2026-05-04 01:40 | 37.96659 | -86.16636 | 1504 ft | 103 kts | 247° |
| 2026-05-04 01:41 | 37.96370 | -86.17470 | 1502 ft | 103 kts | 246° |
| 2026-05-04 01:41 | 37.96068 | -86.18297 | 1499 ft | 103 kts | 244° |
| 2026-05-04 01:41 | 37.95751 | -86.19117 | 1497 ft | 103 kts | 243° |
| 2026-05-04 01:41 | 37.95420 | -86.19923 | 1495 ft | 103 kts | 242° |
| 2026-05-04 01:42 | 37.95084 | -86.20719 | 1490 ft | 104 kts | 244° |
| 2026-05-04 01:42 | 37.94805 | -86.21563 | 1484 ft | 104 kts | 250° |
| 2026-05-04 01:42 | 37.94588 | -86.22433 | 1482 ft | 104 kts | 252° |
| 2026-05-04 01:42 | 37.94373 | -86.23303 | 1481 ft | 103 kts | 252° |
| 2026-05-04 01:43 | 37.94156 | -86.24169 | 1478 ft | 103 kts | 252° |
| 2026-05-04 01:43 | 37.93932 | -86.25037 | 1475 ft | 103 kts | 251° |
| 2026-05-04 01:43 | 37.93701 | -86.25901 | 1472 ft | 103 kts | 251° |
| 2026-05-04 01:43 | 37.93476 | -86.26767 | 1465 ft | 104 kts | 255° |
| 2026-05-04 01:44 | 37.93300 | -86.27658 | 1468 ft | 103 kts | 256° |
| 2026-05-04 01:44 | 37.93123 | -86.28531 | 1483 ft | 102 kts | 255° |
| 2026-05-04 01:44 | 37.92940 | -86.29397 | 1472 ft | 103 kts | 255° |
| 2026-05-04 01:44 | 37.92748 | -86.30282 | 1480 ft | 103 kts | 255° |
| 2026-05-04 01:45 | 37.92558 | -86.31149 | 1473 ft | 103 kts | 254° |
| 2026-05-04 01:45 | 37.92362 | -86.32022 | 1478 ft | 103 kts | 254° |
| 2026-05-04 01:45 | 37.91947 | -86.33762 | 1477 ft | 103 kts | 252° |
| 2026-05-04 01:46 | 37.91725 | -86.34626 | 1477 ft | 103 kts | 251° |
| 2026-05-04 01:46 | 37.91492 | -86.35485 | 1476 ft | 103 kts | 250° |
| 2026-05-04 01:46 | 37.91246 | -86.36338 | 1476 ft | 103 kts | 249° |
| 2026-05-04 01:46 | 37.90987 | -86.37186 | 1476 ft | 103 kts | 248° |
| 2026-05-04 01:47 | 37.90731 | -86.38040 | 1470 ft | 104 kts | 253° |
| 2026-05-04 01:47 | 37.90548 | -86.38918 | 1465 ft | 103 kts | 255° |
| 2026-05-04 01:47 | 37.90356 | -86.39791 | 1474 ft | 103 kts | 253° |
| 2026-05-04 01:47 | 37.90152 | -86.40664 | 1465 ft | 104 kts | 254° |
| 2026-05-04 01:48 | 37.89959 | -86.41543 | 1467 ft | 103 kts | 255° |
| 2026-05-04 01:48 | 37.89776 | -86.42424 | 1464 ft | 103 kts | 255° |
| 2026-05-04 01:48 | 37.89597 | -86.43305 | 1463 ft | 103 kts | 256° |
| 2026-05-04 01:48 | 37.89418 | -86.44187 | 1462 ft | 103 kts | 255° |
| 2026-05-04 01:49 | 37.89237 | -86.45067 | 1461 ft | 103 kts | 255° |
| 2026-05-04 01:49 | 37.89049 | -86.45947 | 1459 ft | 103 kts | 255° |
| 2026-05-04 01:49 | 37.88854 | -86.46823 | 1458 ft | 103 kts | 254° |
| 2026-05-04 01:49 | 37.88651 | -86.47684 | 1457 ft | 103 kts | 253° |
| 2026-05-04 01:50 | 37.88436 | -86.48551 | 1455 ft | 103 kts | 252° |
| 2026-05-04 01:50 | 37.88209 | -86.49413 | 1470 ft | 102 kts | 251° |
| 2026-05-04 01:50 | 37.87982 | -86.50269 | 1477 ft | 102 kts | 252° |
| 2026-05-04 01:50 | 37.87761 | -86.51128 | 1475 ft | 103 kts | 252° |
| 2026-05-04 01:51 | 37.87557 | -86.51992 | 1476 ft | 103 kts | 255° |
| 2026-05-04 01:51 | 37.87396 | -86.52882 | 1475 ft | 103 kts | 258° |
| 2026-05-04 01:51 | 37.87260 | -86.53771 | 1477 ft | 103 kts | 259° |
| 2026-05-04 01:51 | 37.87137 | -86.54667 | 1476 ft | 103 kts | 260° |
| 2026-05-04 01:52 | 37.87021 | -86.55564 | 1477 ft | 103 kts | 261° |
| 2026-05-04 01:52 | 37.86909 | -86.56462 | 1477 ft | 103 kts | 261° |
| 2026-05-04 01:52 | 37.86795 | -86.57360 | 1478 ft | 103 kts | 260° |
| 2026-05-04 01:52 | 37.86637 | -86.58246 | 1481 ft | 103 kts | 253° |
| 2026-05-04 01:53 | 37.86421 | -86.59100 | 1479 ft | 103 kts | 252° |
| 2026-05-04 01:53 | 37.86196 | -86.59963 | 1479 ft | 103 kts | 251° |
| 2026-05-04 01:53 | 37.85964 | -86.60824 | 1479 ft | 103 kts | 251° |
| 2026-05-04 01:53 | 37.85723 | -86.61680 | 1478 ft | 103 kts | 250° |
| 2026-05-04 01:54 | 37.85470 | -86.62535 | 1478 ft | 103 kts | 249° |
| 2026-05-04 01:54 | 37.85207 | -86.63380 | 1477 ft | 103 kts | 248° |
| 2026-05-04 01:54 | 37.84975 | -86.64239 | 1465 ft | 104 kts | 255° |
| 2026-05-04 01:54 | 37.84820 | -86.65134 | 1468 ft | 103 kts | 258° |
| 2026-05-04 01:55 | 37.84677 | -86.66023 | 1470 ft | 103 kts | 258° |
| 2026-05-04 01:55 | 37.84508 | -86.66909 | 1468 ft | 103 kts | 255° |
| 2026-05-04 01:55 | 37.84311 | -86.67781 | 1469 ft | 103 kts | 253° |
| 2026-05-04 01:55 | 37.84097 | -86.68652 | 1469 ft | 103 kts | 253° |
| 2026-05-04 01:56 | 37.83933 | -86.69532 | 1465 ft | 104 kts | 258° |
| 2026-05-04 01:56 | 37.83789 | -86.70416 | 1464 ft | 103 kts | 258° |
| 2026-05-04 01:56 | 37.83644 | -86.71307 | 1465 ft | 103 kts | 258° |
| 2026-05-04 01:56 | 37.83498 | -86.72198 | 1461 ft | 104 kts | 258° |
| 2026-05-04 01:57 | 37.83346 | -86.73083 | 1470 ft | 103 kts | 256° |
| 2026-05-04 01:57 | 37.83143 | -86.73952 | 1468 ft | 103 kts | 252° |
| 2026-05-04 01:57 | 37.82933 | -86.74827 | 1460 ft | 104 kts | 253° |
| 2026-05-04 01:57 | 37.82717 | -86.75695 | 1464 ft | 103 kts | 252° |
| 2026-05-04 01:58 | 37.82492 | -86.76562 | 1457 ft | 104 kts | 251° |
| 2026-05-04 01:58 | 37.82269 | -86.77416 | 1457 ft | 103 kts | 251° |
| 2026-05-04 01:58 | 37.82040 | -86.78281 | 1454 ft | 104 kts | 251° |
| 2026-05-04 01:58 | 37.81805 | -86.79147 | 1452 ft | 104 kts | 251° |
| 2026-05-04 01:59 | 37.81573 | -86.80006 | 1447 ft | 104 kts | 253° |
| 2026-05-04 01:59 | 37.81382 | -86.80888 | 1447 ft | 103 kts | 256° |
| 2026-05-04 01:59 | 37.81209 | -86.81774 | 1443 ft | 104 kts | 256° |
| 2026-05-04 01:59 | 37.81047 | -86.82651 | 1440 ft | 104 kts | 257° |
| 2026-05-04 02:00 | 37.80884 | -86.83549 | 1438 ft | 104 kts | 257° |
| 2026-05-04 02:00 | 37.80725 | -86.84429 | 1435 ft | 104 kts | 257° |
| 2026-05-04 02:00 | 37.80564 | -86.85305 | 1465 ft | 101 kts | 257° |
| 2026-05-04 02:00 | 37.80398 | -86.86177 | 1467 ft | 103 kts | 256° |
| 2026-05-04 02:01 | 37.80217 | -86.87052 | 1473 ft | 102 kts | 255° |
| 2026-05-04 02:01 | 37.80021 | -86.87916 | 1483 ft | 102 kts | 253° |
| 2026-05-04 02:01 | 37.79881 | -86.88486 | 1485 ft | 103 kts | 252° |
| 2026-05-04 02:01 | 37.79596 | -86.89636 | 1493 ft | 103 kts | 254° |
| 2026-05-04 02:02 | 37.79473 | -86.90213 | 1494 ft | 103 kts | 255° |
| 2026-05-04 02:02 | 37.79299 | -86.91091 | 1503 ft | 102 kts | 256° |
| 2026-05-04 02:02 | 37.79083 | -86.92254 | 1506 ft | 103 kts | 259° |
| 2026-05-04 02:02 | 37.79033 | -86.92866 | 1491 ft | 104 kts | 267° |
| 2026-05-04 02:03 | 37.78999 | -86.93769 | 1513 ft | 102 kts | 266° |
| 2026-05-04 02:03 | 37.78959 | -86.94667 | 1512 ft | 103 kts | 267° |
| 2026-05-04 02:03 | 37.78934 | -86.95572 | 1515 ft | 103 kts | 268° |
| 2026-05-04 02:03 | 37.78914 | -86.96452 | 1530 ft | 98 kts | 268° |
| 2026-05-04 02:04 | 37.78876 | -86.97302 | 1527 ft | 96 kts | 265° |
| 2026-05-04 02:04 | 37.78829 | -86.98152 | 1513 ft | 96 kts | 266° |
| 2026-05-04 02:04 | 37.78785 | -86.98987 | 1517 ft | 95 kts | 266° |
| 2026-05-04 02:04 | 37.78738 | -86.99822 | 1517 ft | 93 kts | 265° |
| 2026-05-04 02:05 | 37.78687 | -87.00623 | 1506 ft | 91 kts | 265° |
| 2026-05-04 02:05 | 37.78630 | -87.01407 | 1492 ft | 90 kts | 264° |
| 2026-05-04 02:05 | 37.78557 | -87.02205 | 1477 ft | 90 kts | 263° |
| 2026-05-04 02:05 | 37.78475 | -87.02973 | 1470 ft | 89 kts | 262° |
| 2026-05-04 02:06 | 37.78386 | -87.03753 | 1454 ft | 90 kts | 264° |
| 2026-05-04 02:06 | 37.78346 | -87.04540 | 1444 ft | 89 kts | 267° |
| 2026-05-04 02:06 | 37.78321 | -87.05324 | 1433 ft | 89 kts | 268° |
| 2026-05-04 02:06 | 37.78298 | -87.06106 | 1436 ft | 88 kts | 267° |
| 2026-05-04 02:07 | 37.78260 | -87.06882 | 1429 ft | 89 kts | 265° |
| 2026-05-04 02:07 | 37.78203 | -87.07683 | 1445 ft | 95 kts | 264° |
| 2026-05-04 02:07 | 37.78129 | -87.08539 | 1446 ft | 99 kts | 263° |
| 2026-05-04 02:07 | 37.78077 | -87.09428 | 1435 ft | 103 kts | 267° |
| 2026-05-04 02:08 | 37.78031 | -87.10332 | 1422 ft | 108 kts | 265° |
| 2026-05-04 02:08 | 37.77965 | -87.11300 | 1414 ft | 113 kts | 264° |
| 2026-05-04 02:08 | 37.77887 | -87.12292 | 1346 ft | 113 kts | 264° |
| 2026-05-04 02:08 | 37.77810 | -87.13282 | 1203 ft | 113 kts | 264° |
| 2026-05-04 02:09 | 37.77730 | -87.14234 | 1105 ft | 104 kts | 264° |
| 2026-05-04 02:09 | 37.77649 | -87.15122 | 1057 ft | 99 kts | 262° |
| 2026-05-04 02:09 | 37.77447 | -87.15908 | 993 ft | 91 kts | 237° |
| 2026-05-04 02:09 | 37.76991 | -87.16484 | 863 ft | 90 kts | 217° |
| 2026-05-04 02:10 | 37.76456 | -87.16838 | 790 ft | 85 kts | 192° |
| 2026-05-04 02:10 | 37.75909 | -87.16834 | 650 ft | 74 kts | 177° |
| 2026-05-04 02:10 | 37.75420 | -87.16795 | 535 ft | 69 kts | 177° |
| 2026-05-04 02:10 | 37.74965 | -87.16778 | 450 ft | 64 kts | 177° |
| 2026-05-04 02:11 | 37.74551 | -87.16751 | 410 ft | 50 kts | 178° |
| 2026-05-04 02:11 | 37.74265 | -87.16735 | 409 ft | 31 kts | 177° |
| 2026-05-04 02:11 | 37.74144 | -87.16726 | 409 ft | 12 kts | 160° |
| 2026-05-04 02:11 | 37.74133 | -87.16675 | 409 ft | 8 kts | 56° |
| 2026-05-04 02:12 | 37.74153 | -87.16636 | 409 ft | 5 kts | 57° |
| 2026-05-04 02:12 | 37.74169 | -87.16610 | 409 ft | 2 kts | 49° |
| 2026-05-04 02:12 | 37.74172 | -87.16606 | 409 ft | 3 kts | 38° |
| 2026-05-04 02:12 | 37.74210 | -87.16543 | 409 ft | 13 kts | 55° |
| 2026-05-04 02:13 | 37.74257 | -87.16461 | 409 ft | 8 kts | 53° |
| 2026-05-04 02:13 | 37.74291 | -87.16404 | 409 ft | 9 kts | 54° |
| 2026-05-04 02:13 | 37.74335 | -87.16325 | 409 ft | 13 kts | 55° |
| 2026-05-04 02:13 | 37.74382 | -87.16240 | 409 ft | 9 kts | 55° |
| 2026-05-04 02:14 | 37.74420 | -87.16174 | 409 ft | 7 kts | 54° |
| 2026-05-04 02:14 | 37.74446 | -87.16145 | 409 ft | 4 kts | 356° |
| 2026-05-04 02:14 | 37.74471 | -87.16165 | 409 ft | 7 kts | 324° |
| 2026-05-04 02:14 | 37.74527 | -87.16215 | 409 ft | 12 kts | 324° |
| 2026-05-04 02:15 | 37.74569 | -87.16278 | 409 ft | 8 kts | 276° |
| 2026-05-04 02:15 | 37.74577 | -87.16350 | 409 ft | 8 kts | 279° |
| 2026-05-04 02:15 | 37.74589 | -87.16372 | 409 ft | 3 kts | 19° |
| 2026-05-04 02:15 | 37.74624 | -87.16353 | 409 ft | 7 kts | 24° |
| 2026-05-04 02:16 | 37.74636 | -87.16346 | 409 ft | 0 kts | 24° |